Ansley, Nebraska
Current Conditions -  °F | °C
As of 3:53 AM on Friday 31 Oct 2014 (Local Time) from KBBW Reporting Station
Overcast Overcast  
Wind Chill: 24°   Ceiling: 1300
Heat Index: 33°   Visibility: 10mi
Dew Point: 27°   Wind: 12mph
Humidity: 78%   Direction: 10°N
Pressure: 30.5"   Gusts: NA
Location:  41.29°N, 99.38°W
Report Text: KBBW 310853Z AUTO 01010KT 10SM OVC013 01/M03 A3050 RMK AO2 SLP336 T00061028 51019
Loading
Personal Weather Stations






























Interactive Weather Map New forecast layout! Learn more

10-Day Weather Forecast

Advertisements
Track Severe Weather on mobile